Time;durP1;ratioP1;P1;durP2;ratioP2;P2;SDS_P1;SDS_P2;PMS_P1;PMS_P2;Temp;Humidity;BMP_temperature;BMP_pressure;BME280_temperature;BME280_humidity;BME280_pressure;Samples;Min_cycle;Max_cycle;Signal;HPM_P1;HPM_P2
2022/03/01 00:00:19;;;;;;;22.00;13.20;;;;;;;-0.10;87.54;102663.06;5236383;28;20064;-66
2022/03/01 00:02:50;;;;;;;21.08;13.68;;;;;;;-0.11;88.43;102654.34;5242681;28;20036;-66
2022/03/01 00:05:21;;;;;;;23.58;12.93;;;;;;;-0.16;87.57;102663.09;5237788;28;20033;-66
2022/03/01 00:07:53;;;;;;;24.40;13.15;;;;;;;-0.22;87.48;102661.34;5239253;28;20165;-66
2022/03/01 00:10:24;;;;;;;25.25;12.82;;;;;;;-0.22;88.37;102666.59;5238271;28;20035;-66
2022/03/01 00:12:55;;;;;;;22.42;12.52;;;;;;;-0.28;88.37;102659.63;5241699;28;20053;-66
2022/03/01 00:15:27;;;;;;;24.92;13.80;;;;;;;-0.32;88.09;102659.63;5242552;28;20510;-66
2022/03/01 00:17:58;;;;;;;24.48;13.38;;;;;;;-0.35;88.68;102654.38;5245377;28;20036;-66
2022/03/01 00:20:29;;;;;;;22.92;13.70;;;;;;;-0.40;89.43;102662.28;5246304;28;20025;-66
2022/03/01 00:23:00;;;;;;;24.77;13.63;;;;;;;-0.42;89.66;102658.78;5253418;28;20029;-66
2022/03/01 00:25:32;;;;;;;22.50;12.88;;;;;;;-0.45;89.30;102661.41;5242698;28;20028;-66
2022/03/01 00:28:03;;;;;;;24.13;13.23;;;;;;;-0.52;88.83;102659.66;5246743;28;20032;-66
2022/03/01 00:30:34;;;;;;;24.02;13.02;;;;;;;-0.55;89.20;102651.81;5242453;28;20084;-66
2022/03/01 00:33:06;;;;;;;24.27;13.20;;;;;;;-0.58;89.55;102655.28;5254536;28;20025;-66
2022/03/01 00:35:37;;;;;;;23.73;13.43;;;;;;;-0.61;89.33;102653.56;5247641;28;20451;-66
2022/03/01 00:38:08;;;;;;;23.80;12.90;;;;;;;-0.65;89.17;102657.06;5245118;28;20474;-66
2022/03/01 00:40:39;;;;;;;21.05;12.50;;;;;;;-0.63;89.28;102662.31;5244072;28;20033;-66
2022/03/01 00:43:11;;;;;;;23.73;13.30;;;;;;;-0.66;89.32;102660.53;5246612;28;20055;-66
2022/03/01 00:45:42;;;;;;;23.70;13.75;;;;;;;-0.71;89.46;102661.41;5242538;28;20383;-66
2022/03/01 00:48:14;;;;;;;22.50;13.20;;;;;;;-0.72;89.26;102662.31;5251006;28;20433;-66
2022/03/01 00:50:45;;;;;;;22.10;13.30;;;;;;;-0.75;90.11;102657.03;5242575;28;20029;-66
2022/03/01 00:53:16;;;;;;;22.67;12.75;;;;;;;-0.75;89.58;102664.91;5245157;28;20096;-66
2022/03/01 00:55:48;;;;;;;24.25;13.05;;;;;;;-0.73;90.09;102656.19;5243120;28;20033;-66
2022/03/01 00:58:19;;;;;;;24.15;13.30;;;;;;;-0.78;90.72;102662.31;5242081;28;20025;-66
2022/03/01 01:00:50;;;;;;;23.98;13.35;;;;;;;-0.80;90.36;102659.69;5239039;28;20120;-66
2022/03/01 01:03:21;;;;;;;22.17;13.40;;;;;;;-0.82;89.83;102657.06;5240126;28;20107;-66
2022/03/01 01:05:53;;;;;;;22.27;12.97;;;;;;;-0.83;89.96;102657.03;5243550;28;20491;-66
2022/03/01 01:08:24;;;;;;;21.52;12.43;;;;;;;-0.82;89.40;102658.81;5243446;28;20021;-66
2022/03/01 01:10:55;;;;;;;23.95;13.45;;;;;;;-0.76;89.40;102661.41;5239865;28;20364;-66
2022/03/01 01:13:29;;;;;;;22.60;13.73;;;;;;;-0.84;89.13;102663.19;5242163;28;20022;-66
2022/03/01 01:16:00;;;;;;;22.25;13.38;;;;;;;-0.84;89.90;102666.66;5241396;28;20103;-66
2022/03/01 01:18:31;;;;;;;23.33;12.90;;;;;;;-0.87;89.59;102660.53;5246883;28;20032;-66
2022/03/01 01:21:03;;;;;;;22.45;12.98;;;;;;;-0.88;89.75;102664.03;5239867;28;20156;-66
2022/03/01 01:23:34;;;;;;;21.48;12.88;;;;;;;-0.88;89.64;102667.53;5239768;28;20037;-66
2022/03/01 01:26:05;;;;;;;22.45;13.40;;;;;;;-0.84;89.28;102660.56;5243069;28;20044;-66
2022/03/01 01:28:37;;;;;;;21.33;12.55;;;;;;;-0.83;89.57;102651.81;5241257;28;20033;-66
2022/03/01 01:31:08;;;;;;;26.63;12.27;;;;;;;-0.88;89.12;102651.81;5240446;28;20045;-66
2022/03/01 01:33:39;;;;;;;22.42;12.90;;;;;;;-0.94;89.88;102654.44;5242222;28;20036;-66
2022/03/01 01:36:10;;;;;;;20.80;12.57;;;;;;;-0.89;89.87;102662.28;5236242;28;20029;-66
2022/03/01 01:38:42;;;;;;;21.65;12.52;;;;;;;-0.88;89.73;102658.78;5241481;28;20036;-66
2022/03/01 01:41:13;;;;;;;22.05;12.45;;;;;;;-0.93;89.81;102661.41;5240349;28;20030;-66
2022/03/01 01:43:44;;;;;;;21.88;12.77;;;;;;;-0.90;89.78;102665.75;5241162;28;20053;-66
2022/03/01 01:46:15;;;;;;;22.08;13.20;;;;;;;-0.89;90.07;102659.66;5241608;28;20044;-66
2022/03/01 01:48:47;;;;;;;20.55;12.43;;;;;;;-0.87;90.27;102650.06;5245655;28;20057;-66
2022/03/01 01:51:18;;;;;;;21.40;12.90;;;;;;;-0.89;90.67;102652.66;5240115;28;20036;-66
2022/03/01 01:53:50;;;;;;;20.65;12.98;;;;;;;-0.89;91.18;102651.81;5243586;28;20025;-66
2022/03/01 01:56:21;;;;;;;23.50;12.90;;;;;;;-0.84;90.61;102643.06;5240447;28;20102;-66
2022/03/01 01:58:53;;;;;;;22.70;13.13;;;;;;;-0.80;90.08;102651.81;5241043;28;20037;-66
2022/03/01 02:01:24;;;;;;;23.88;12.73;;;;;;;-0.71;89.55;102650.91;5238074;28;20033;-66
2022/03/01 02:03:56;;;;;;;22.45;12.60;;;;;;;-0.70;89.64;102653.56;5249045;28;20467;-66
2022/03/01 02:06:27;;;;;;;21.85;13.10;;;;;;;-0.67;89.78;102643.06;5250438;28;20025;-66
2022/03/01 02:08:58;;;;;;;21.58;12.57;;;;;;;-0.66;89.36;102643.94;5251255;28;20047;-66
2022/03/01 02:11:30;;;;;;;21.60;12.88;;;;;;;-0.62;89.61;102641.31;5238999;28;20029;-66
2022/03/01 02:14:03;;;;;;;23.63;13.32;;;;;;;-0.68;88.87;102638.69;5245578;28;20032;-66
2022/03/01 02:16:35;;;;;;;20.95;12.05;;;;;;;-0.58;89.53;102639.56;5248499;28;20053;-66
2022/03/01 02:19:11;;;;;;;21.92;12.77;;;;;;;-0.57;87.99;102643.94;5251693;28;20467;-66
2022/03/01 02:21:50;;;;;;;21.50;12.07;;;;;;;-0.62;88.13;102641.31;5239582;28;20053;-66
2022/03/01 02:24:24;;;;;;;19.98;12.57;;;;;;;-0.64;87.40;102643.06;5245617;28;20079;-66
2022/03/01 02:26:57;;;;;;;21.58;12.27;;;;;;;-0.62;87.82;102646.53;5242187;28;20029;-66
2022/03/01 02:29:28;;;;;;;23.10;12.68;;;;;;;-0.65;87.15;102646.56;5249648;28;20025;-66
2022/03/01 02:32:04;;;;;;;19.63;11.80;;;;;;;-0.60;87.36;102643.94;5240295;28;20036;-66
2022/03/01 02:34:36;;;;;;;21.77;12.75;;;;;;;-0.55;87.26;102643.94;5249821;28;20079;-66
2022/03/01 02:37:07;;;;;;;21.38;12.32;;;;;;;-0.55;86.83;102636.94;5246283;28;20555;-66
2022/03/01 02:39:38;;;;;;;18.92;11.80;;;;;;;-0.53;86.94;102639.56;5237590;28;20422;-66
2022/03/01 02:42:10;;;;;;;19.77;11.85;;;;;;;-0.52;87.29;102639.53;5247828;28;20032;-66
2022/03/01 02:44:41;;;;;;;19.92;11.60;;;;;;;-0.44;86.76;102636.91;5238300;28;20402;-66
2022/03/01 02:47:14;;;;;;;20.15;12.13;;;;;;;-0.40;86.42;102636.06;5238483;28;20479;-66
2022/03/01 02:49:45;;;;;;;23.85;12.07;;;;;;;-0.35;86.37;102633.41;5239049;28;20040;-66
2022/03/01 02:52:16;;;;;;;22.20;11.60;;;;;;;-0.31;85.53;102627.28;5238021;28;20025;-66
2022/03/01 02:54:48;;;;;;;21.90;12.55;;;;;;;-0.24;85.61;102627.25;5233819;28;20048;-66
2022/03/01 02:57:19;;;;;;;18.08;10.82;;;;;;;-0.18;85.37;102621.13;5240350;28;20065;-66
2022/03/01 02:59:51;;;;;;;20.95;11.63;;;;;;;-0.14;85.06;102614.13;5241435;28;20399;-66
2022/03/01 03:02:23;;;;;;;19.65;11.40;;;;;;;-0.09;84.36;102620.22;5244214;28;20068;-66
2022/03/01 03:04:54;;;;;;;19.88;11.55;;;;;;;-0.07;84.69;102621.09;5243483;28;20025;-66
2022/03/01 03:07:26;;;;;;;20.25;11.48;;;;;;;-0.01;84.14;102627.19;5241675;28;20544;-66
2022/03/01 03:09:57;;;;;;;19.65;12.10;;;;;;;-0.04;83.91;102621.97;5239680;28;20052;-66
2022/03/01 03:12:29;;;;;;;20.08;11.90;;;;;;;0.02;83.85;102618.44;5236663;28;20041;-66
2022/03/01 03:15:00;;;;;;;19.58;11.10;;;;;;;0.04;83.54;102618.41;5237283;28;20111;-66
2022/03/01 03:17:32;;;;;;;19.38;10.82;;;;;;;0.10;82.57;102610.53;5237506;28;20033;-66
2022/03/01 03:20:04;;;;;;;17.25;11.55;;;;;;;0.10;83.26;102618.41;5241429;28;20033;-66
2022/03/01 03:22:36;;;;;;;19.23;11.35;;;;;;;0.10;83.28;102624.53;5236950;28;20025;-66
2022/03/01 03:25:08;;;;;;;18.17;11.02;;;;;;;0.12;83.10;102620.13;5241681;28;20036;-66
2022/03/01 03:27:39;;;;;;;18.17;11.07;;;;;;;0.09;83.19;102620.13;5243262;28;20033;-66
2022/03/01 03:30:11;;;;;;;19.00;11.20;;;;;;;0.15;82.89;102620.13;5239407;28;20033;-66
2022/03/01 03:32:43;;;;;;;19.20;11.57;;;;;;;0.11;82.91;102617.50;5240624;28;20033;-66
2022/03/01 03:35:14;;;;;;;18.85;11.40;;;;;;;0.12;82.84;102616.66;5240200;28;20060;-66
2022/03/01 03:37:45;;;;;;;19.15;11.38;;;;;;;0.11;83.07;102617.50;5246052;28;20052;-66
2022/03/01 03:40:17;;;;;;;17.40;11.02;;;;;;;0.14;82.68;102621.00;5241747;28;20040;-66
2022/03/01 03:42:48;;;;;;;18.85;10.95;;;;;;;0.12;82.75;102616.66;5244358;28;20017;-66
2022/03/01 03:45:19;;;;;;;21.38;12.00;;;;;;;0.15;84.08;102612.25;5240799;28;20059;-66
2022/03/01 03:47:51;;;;;;;20.67;11.68;;;;;;;0.10;83.17;102619.28;5244187;28;20443;-66
2022/03/01 03:50:23;;;;;;;19.13;11.23;;;;;;;0.11;83.03;102622.75;5243705;28;20577;-66
2022/03/01 03:52:54;;;;;;;18.70;11.48;;;;;;;0.18;82.33;102612.22;5249646;28;20029;-66
2022/03/01 03:55:26;;;;;;;20.55;12.20;;;;;;;0.17;82.49;102615.75;5244760;28;20021;-66
2022/03/01 03:57:57;;;;;;;19.42;11.57;;;;;;;0.21;82.64;102619.22;5244817;28;20068;-66
2022/03/01 04:00:28;;;;;;;19.75;11.25;;;;;;;0.25;82.53;102606.94;5241238;28;20033;-66
2022/03/01 04:03:00;;;;;;;17.30;11.30;;;;;;;0.24;82.20;102623.59;5242431;28;20442;-66
2022/03/01 04:05:31;;;;;;;21.85;11.27;;;;;;;0.27;82.05;102618.31;5243468;28;20356;-66
2022/03/01 04:08:03;;;;;;;17.40;11.25;;;;;;;0.28;82.15;102620.94;5242586;28;20033;-66
2022/03/01 04:10:34;;;;;;;19.00;11.30;;;;;;;0.31;82.32;102620.94;5245719;28;20150;-66
2022/03/01 04:13:05;;;;;;;20.75;12.63;;;;;;;0.35;81.48;102614.78;5249068;28;20036;-66
2022/03/01 04:15:37;;;;;;;24.88;11.95;;;;;;;0.37;81.50;102622.66;5244291;28;20155;-66
2022/03/01 04:18:08;;;;;;;18.95;11.85;;;;;;;0.35;81.50;102624.41;5245268;28;20030;-66
2022/03/01 04:20:39;;;;;;;19.40;11.32;;;;;;;0.39;81.29;102621.75;5246050;28;20029;-66
2022/03/01 04:23:11;;;;;;;16.92;10.98;;;;;;;0.39;82.26;102619.13;5251979;28;20561;-66
2022/03/01 04:25:42;;;;;;;20.42;11.85;;;;;;;0.41;81.61;102623.50;5244012;28;20086;-66
2022/03/01 04:28:14;;;;;;;19.50;12.52;;;;;;;0.42;81.65;102627.88;5243823;28;20036;-66
2022/03/01 04:30:45;;;;;;;16.92;11.18;;;;;;;0.48;80.39;102626.09;5245519;28;20056;-66
2022/03/01 04:33:17;;;;;;;20.83;12.40;;;;;;;0.54;79.85;102627.81;5246625;28;20117;-66
2022/03/01 04:35:48;;;;;;;18.77;11.32;;;;;;;0.58;79.99;102621.66;5248397;28;20029;-66
2022/03/01 04:38:20;;;;;;;21.50;12.13;;;;;;;0.62;80.30;102631.25;5241718;28;20036;-66
2022/03/01 04:40:52;;;;;;;18.63;11.05;;;;;;;0.67;79.45;102631.22;5244806;28;20021;-66
2022/03/01 04:43:24;;;;;;;24.85;11.88;;;;;;;0.69;78.87;102621.56;5243378;28;20038;-66
2022/03/01 04:45:56;;;;;;;19.23;11.48;;;;;;;0.75;78.62;102627.66;5241821;28;20021;-66
2022/03/01 04:48:27;;;;;;;23.42;11.68;;;;;;;0.77;78.82;102623.28;5257023;28;20048;-66
2022/03/01 04:50:59;;;;;;;21.20;11.88;;;;;;;0.78;80.16;102619.75;5244144;28;20029;-66
2022/03/01 04:53:30;;;;;;;20.20;12.35;;;;;;;0.84;79.45;102615.34;5243338;28;20032;-66
2022/03/01 04:56:02;;;;;;;24.15;12.05;;;;;;;0.81;80.29;102613.63;5251066;28;20497;-66
2022/03/01 04:58:33;;;;;;;22.10;12.30;;;;;;;0.79;79.35;102615.38;5253899;28;20033;-66
2022/03/01 05:01:05;;;;;;;20.67;11.68;;;;;;;0.82;79.82;102610.09;5241270;28;20028;-66
2022/03/01 05:03:36;;;;;;;20.13;11.50;;;;;;;0.86;79.01;102606.56;5246319;28;20554;-66
2022/03/01 05:06:08;;;;;;;19.23;11.70;;;;;;;0.92;78.35;102608.25;5249039;28;20029;-66
2022/03/01 05:08:39;;;;;;;21.63;12.38;;;;;;;0.91;79.65;102611.78;5247048;28;20061;-66
2022/03/01 05:11:10;;;;;;;18.65;11.68;;;;;;;0.87;78.34;102608.31;5242603;28;20040;-66
2022/03/01 05:13:41;;;;;;;18.73;11.57;;;;;;;0.86;78.10;102619.69;5247524;28;20033;-66
2022/03/01 05:16:13;;;;;;;18.35;11.68;;;;;;;0.89;78.19;102601.28;5244828;28;20065;-66
2022/03/01 05:18:44;;;;;;;22.60;12.65;;;;;;;0.92;79.34;102606.53;5248895;28;20111;-66
2022/03/01 05:21:15;;;;;;;19.13;11.40;;;;;;;0.93;77.39;102608.25;5246057;28;20047;-66
2022/03/01 05:23:47;;;;;;;18.00;11.23;;;;;;;0.90;77.75;102604.78;5242464;28;20079;-66
2022/03/01 05:26:18;;;;;;;19.92;12.48;;;;;;;0.95;78.02;102605.63;5250197;28;20399;-66
2022/03/01 05:28:50;;;;;;;18.42;11.15;;;;;;;0.93;78.03;102594.25;5241932;28;20033;-66
2022/03/01 05:31:21;;;;;;;21.50;11.57;;;;;;;0.93;77.53;102583.75;5242491;28;20085;-66
2022/03/01 05:33:53;;;;;;;20.65;12.45;;;;;;;0.92;78.65;102588.13;5243347;28;20246;-66
2022/03/01 05:36:24;;;;;;;22.05;12.38;;;;;;;0.98;78.74;102584.59;5239778;28;20054;-66
2022/03/01 05:38:55;;;;;;;21.52;12.88;;;;;;;0.95;80.07;102577.56;5242632;28;20453;-66
2022/03/01 05:41:28;;;;;;;23.63;12.65;;;;;;;0.97;77.82;102586.31;5240572;28;20048;-67
2022/03/01 05:43:59;;;;;;;23.10;12.73;;;;;;;0.89;78.36;102576.78;5238567;28;20112;-66
2022/03/01 05:46:31;;;;;;;24.92;12.40;;;;;;;0.91;77.59;102583.75;5245555;28;20037;-66
2022/03/01 05:49:02;;;;;;;19.10;11.18;;;;;;;0.82;77.38;102581.19;5244363;28;20065;-66
2022/03/01 05:51:33;;;;;;;18.67;12.07;;;;;;;0.86;77.75;102577.66;5241463;28;20578;-66
2022/03/01 05:54:04;;;;;;;19.48;11.27;;;;;;;0.82;77.76;102572.44;5245916;28;20039;-64
2022/03/01 05:56:36;;;;;;;19.75;11.07;;;;;;;0.73;76.91;102576.00;5244884;28;20106;-66
2022/03/01 05:59:07;;;;;;;19.65;12.05;;;;;;;0.68;78.41;102590.94;5242906;28;20490;-66
2022/03/01 06:01:38;;;;;;;19.48;11.68;;;;;;;0.64;78.73;102587.47;5242102;28;20075;-66
2022/03/01 06:04:10;;;;;;;21.83;12.52;;;;;;;0.64;77.86;102579.59;5239907;28;20171;-66
2022/03/01 06:06:41;;;;;;;22.08;12.65;;;;;;;0.57;78.39;102584.00;5248798;28;20469;-66
2022/03/01 06:09:12;;;;;;;20.85;12.23;;;;;;;0.63;78.71;102580.44;5243896;28;20507;-66
2022/03/01 06:11:44;;;;;;;22.42;12.77;;;;;;;0.61;78.20;102576.97;5249397;28;20453;-66
2022/03/01 06:14:16;;;;;;;19.73;11.77;;;;;;;0.57;80.28;102584.00;5247603;28;20036;-66
2022/03/01 06:16:47;;;;;;;20.67;12.02;;;;;;;0.49;79.89;102580.56;5242687;28;20044;-66
2022/03/01 06:19:19;;;;;;;21.48;12.10;;;;;;;0.50;79.87;102577.06;5247898;28;20039;-66
2022/03/01 06:21:52;;;;;;;21.95;11.82;;;;;;;0.44;78.76;102578.84;5242754;28;20031;-66
2022/03/01 06:24:23;;;;;;;23.17;12.05;;;;;;;0.50;79.98;102571.81;5242502;28;20034;-66
2022/03/01 06:26:54;;;;;;;21.90;12.05;;;;;;;0.47;79.51;102578.84;5248449;28;20067;-66
2022/03/01 06:29:26;;;;;;;23.40;12.55;;;;;;;0.44;79.43;102579.72;5244721;28;20035;-66
2022/03/01 06:31:57;;;;;;;23.58;12.25;;;;;;;0.40;79.63;102585.84;5239571;28;20079;-66
2022/03/01 06:34:28;;;;;;;22.23;12.32;;;;;;;0.41;79.51;102594.63;5248930;28;20387;-67
2022/03/01 06:36:59;;;;;;;22.35;12.75;;;;;;;0.44;80.21;102595.50;5241838;28;20375;-66
2022/03/01 06:39:32;;;;;;;26.83;13.40;;;;;;;0.45;80.08;102594.59;5250167;28;20509;-66
2022/03/01 06:42:04;;;;;;;20.38;12.63;;;;;;;0.43;80.17;102598.97;5246801;28;20493;-66
2022/03/01 06:44:35;;;;;;;25.33;13.02;;;;;;;0.50;79.92;102616.44;5247746;28;20029;-66
2022/03/01 06:47:07;;;;;;;24.20;12.88;;;;;;;0.56;81.83;102607.66;5243794;28;20040;-66
2022/03/01 06:49:38;;;;;;;24.60;13.35;;;;;;;0.57;81.37;102609.38;5242123;28;20056;-66
2022/03/01 06:52:09;;;;;;;22.08;12.00;;;;;;;0.62;79.78;102604.13;5242427;28;20027;-66
2022/03/01 06:54:41;;;;;;;24.25;13.70;;;;;;;0.73;80.28;102605.78;5245798;28;20499;-66
2022/03/01 06:57:12;;;;;;;21.75;12.80;;;;;;;0.82;78.93;102611.84;5249731;28;20036;-66
2022/03/01 06:59:43;;;;;;;21.85;13.55;;;;;;;0.90;80.15;102612.66;5241541;28;20036;-66
2022/03/01 07:02:15;;;;;;;26.48;14.02;;;;;;;0.95;80.10;102617.00;5243332;28;20246;-66
2022/03/01 07:04:46;;;;;;;25.38;14.85;;;;;;;1.01;80.17;102612.59;5251821;28;20040;-66
2022/03/01 07:07:17;;;;;;;26.88;13.70;;;;;;;1.04;79.86;102620.47;5248125;28;20033;-66
2022/03/01 07:09:49;;;;;;;23.58;13.90;;;;;;;1.10;80.99;102618.66;5241210;28;20447;-66
2022/03/01 07:12:20;;;;;;;22.52;13.52;;;;;;;1.18;79.31;102621.19;5245878;28;20041;-66
2022/03/01 07:14:53;;;;;;;24.35;14.48;;;;;;;1.24;79.28;102617.66;5253333;28;20439;-66
2022/03/01 07:17:24;;;;;;;25.83;14.50;;;;;;;1.32;78.65;102614.06;5242783;28;20037;-66
2022/03/01 07:19:56;;;;;;;22.52;13.82;;;;;;;1.38;80.35;102610.50;5243616;28;20031;-66
2022/03/01 07:22:27;;;;;;;24.30;14.75;;;;;;;1.46;79.76;102608.69;5255698;28;20021;-66
2022/03/01 07:24:58;;;;;;;23.13;14.57;;;;;;;1.52;78.07;102610.38;5250458;28;21505;-67
2022/03/01 07:27:30;;;;;;;23.70;14.00;;;;;;;1.60;75.57;102618.19;5253043;28;20117;-66
2022/03/01 07:30:02;;;;;;;21.40;13.18;;;;;;;1.67;75.48;102620.75;5244209;28;20057;-66
2022/03/01 07:32:33;;;;;;;22.50;12.77;;;;;;;1.73;75.03;102619.81;5255705;28;20037;-66
2022/03/01 07:35:05;;;;;;;24.13;15.23;;;;;;;1.79;74.43;102625.00;5252702;28;20513;-66
2022/03/01 07:37:37;;;;;;;30.70;14.93;;;;;;;1.89;74.39;102629.25;5258059;28;20421;-66
2022/03/01 07:40:11;;;;;;;34.95;20.60;;;;;;;1.96;75.35;102636.19;5258088;28;20514;-66
2022/03/01 07:42:43;;;;;;;24.10;15.13;;;;;;;2.02;76.75;102644.91;5256685;28;20033;-66
2022/03/01 07:45:15;;;;;;;25.48;15.10;;;;;;;2.10;74.98;102649.19;5255358;28;20028;-66
2022/03/01 07:47:46;;;;;;;22.77;13.60;;;;;;;2.15;73.92;102647.38;5257251;28;20371;-66
2022/03/01 07:50:18;;;;;;;22.33;14.15;;;;;;;2.25;74.05;102645.50;5256671;28;20132;-66
2022/03/01 07:52:51;;;;;;;22.48;13.93;;;;;;;2.29;73.30;102638.44;5255676;28;20124;-66
2022/03/01 07:55:23;;;;;;;21.08;12.68;;;;;;;2.32;72.78;102631.38;5254544;28;20108;-66
2022/03/01 07:57:54;;;;;;;22.48;13.02;;;;;;;2.36;73.50;102624.31;5257235;28;20569;-67
2022/03/01 08:00:27;;;;;;;22.80;13.43;;;;;;;2.41;74.26;102611.91;5256871;28;20024;-66
2022/03/01 08:02:58;;;;;;;21.83;13.63;;;;;;;2.44;73.96;102619.78;5256317;28;20029;-66
2022/03/01 08:05:29;;;;;;;23.50;13.65;;;;;;;2.46;72.26;102630.31;5255659;28;20086;-66
2022/03/01 08:08:01;;;;;;;23.30;13.52;;;;;;;2.47;74.15;102632.91;5250443;28;20656;-67
2022/03/01 08:10:33;;;;;;;20.52;12.85;;;;;;;2.51;72.04;102646.91;5253801;28;20119;-66
2022/03/01 08:13:04;;;;;;;21.73;13.10;;;;;;;2.57;72.54;102636.31;5256707;28;20039;-66
2022/03/01 08:15:38;;;;;;;22.55;12.65;;;;;;;2.66;71.42;102640.56;5256656;28;20045;-66
2022/03/01 08:18:09;;;;;;;21.90;12.63;;;;;;;2.77;71.66;102637.78;5255952;28;20036;-66
2022/03/01 08:20:40;;;;;;;20.80;13.02;;;;;;;2.86;71.55;102630.59;5256361;28;20395;-67
2022/03/01 08:23:12;;;;;;;21.55;12.93;;;;;;;2.99;70.48;102633.03;5255862;28;20071;-66
2022/03/01 08:25:43;;;;;;;21.52;14.00;;;;;;;3.07;70.32;102637.28;5253398;28;20041;-67
2022/03/01 08:28:14;;;;;;;21.15;12.80;;;;;;;3.15;70.23;102642.44;5255937;28;20028;-66
2022/03/01 08:30:48;;;;;;;21.73;13.00;;;;;;;3.23;69.54;102643.19;5255077;28;20086;-66
2022/03/01 08:33:21;;;;;;;19.98;13.02;;;;;;;3.30;69.73;102650.09;5252109;28;20225;-66
2022/03/01 08:35:55;;;;;;;22.33;12.98;;;;;;;3.35;68.30;102647.38;5253552;28;20026;-66
2022/03/01 08:38:27;;;;;;;20.67;13.32;;;;;;;3.45;69.01;102643.69;5251597;28;20143;-67
2022/03/01 08:40:58;;;;;;;19.42;12.57;;;;;;;3.53;68.45;102651.47;5254000;28;20023;-67
2022/03/01 08:43:29;;;;;;;27.13;13.05;;;;;;;3.59;66.98;102648.72;5252564;28;20044;-66
2022/03/01 08:46:01;;;;;;;21.67;12.13;;;;;;;3.66;67.59;102653.00;5251728;28;20110;-66
2022/03/01 08:48:32;;;;;;;20.10;12.60;;;;;;;3.75;69.08;102651.94;5257373;28;20032;-67
2022/03/01 08:51:04;;;;;;;25.77;13.50;;;;;;;3.86;67.38;102657.03;5249878;28;20029;-67
2022/03/01 08:53:35;;;;;;;24.00;13.18;;;;;;;3.97;68.96;102668.25;5251343;28;20056;-66
2022/03/01 08:56:08;;;;;;;20.02;12.25;;;;;;;4.04;67.55;102669.00;5256203;28;20036;-67
2022/03/01 08:58:40;;;;;;;21.08;13.07;;;;;;;4.09;69.29;102668.00;5252134;28;21483;-66
2022/03/01 09:01:11;;;;;;;21.25;12.75;;;;;;;4.27;68.27;102666.75;5257576;28;20123;-67
2022/03/01 09:03:44;;;;;;;22.15;12.73;;;;;;;4.37;70.46;102678.00;5252599;28;20052;-67
2022/03/01 09:06:15;;;;;;;21.27;12.52;;;;;;;4.53;68.73;102677.69;5253820;28;20029;-67
2022/03/01 09:08:46;;;;;;;20.85;12.18;;;;;;;4.66;66.40;102677.38;5253860;28;20032;-67
2022/03/01 09:11:17;;;;;;;20.65;12.57;;;;;;;4.80;65.23;102679.72;5252178;28;20033;-66
2022/03/01 09:13:49;;;;;;;21.95;12.82;;;;;;;4.94;67.16;102687.31;5250901;28;20116;-67
2022/03/01 09:16:20;;;;;;;20.83;12.68;;;;;;;5.04;65.75;102678.28;5254419;28;20087;-67
2022/03/01 09:18:52;;;;;;;18.77;13.27;;;;;;;5.12;65.67;102667.50;5251905;28;20107;-67
2022/03/01 09:21:23;;;;;;;19.55;12.90;;;;;;;5.20;65.18;102660.25;5254785;28;20150;-67
2022/03/01 09:23:54;;;;;;;20.35;12.82;;;;;;;5.29;64.24;102662.69;5255123;28;20021;-67
2022/03/01 09:26:25;;;;;;;19.85;12.70;;;;;;;5.36;64.25;102670.47;5255437;28;20055;-67
2022/03/01 09:28:57;;;;;;;20.10;12.35;;;;;;;5.42;64.04;102660.56;5250516;28;20478;-67
2022/03/01 09:31:28;;;;;;;20.95;12.80;;;;;;;5.42;65.15;102657.91;5256233;28;20074;-67
2022/03/01 09:33:59;;;;;;;20.60;12.48;;;;;;;5.45;61.46;102662.28;5252938;28;20021;-67
2022/03/01 09:36:31;;;;;;;22.02;12.63;;;;;;;5.50;62.32;102663.00;5256638;28;20487;-67
2022/03/01 09:39:02;;;;;;;20.67;12.95;;;;;;;5.56;63.02;102665.53;5253175;28;20033;-67
2022/03/01 09:41:34;;;;;;;21.20;12.35;;;;;;;5.68;61.02;102657.25;5252885;28;20120;-67
2022/03/01 09:44:06;;;;;;;19.50;12.30;;;;;;;5.72;66.32;102668.63;5252808;28;20029;-67
2022/03/01 09:46:38;;;;;;;22.15;13.07;;;;;;;5.87;64.69;102673.50;5250282;28;20029;-67
2022/03/01 09:49:10;;;;;;;19.73;13.00;;;;;;;5.94;64.89;102679.50;5251169;28;20040;-67
2022/03/01 09:51:42;;;;;;;23.08;12.27;;;;;;;6.08;61.10;102687.97;5249066;28;20044;-67
2022/03/01 09:54:14;;;;;;;18.50;12.27;;;;;;;6.19;61.56;102686.78;5253819;28;20037;-67
2022/03/01 09:56:45;;;;;;;18.23;12.40;;;;;;;6.30;60.98;102676.75;5251417;28;20039;-67
2022/03/01 09:59:16;;;;;;;22.38;12.90;;;;;;;6.36;60.95;102676.56;5253846;28;20037;-67
2022/03/01 10:01:52;;;;;;;19.02;13.02;;;;;;;6.45;61.34;102686.91;5253547;28;20039;-67
2022/03/01 10:04:25;;;;;;;20.75;12.00;;;;;;;6.52;61.37;102699.97;5252259;28;20025;-67
2022/03/01 10:06:56;;;;;;;21.02;12.35;;;;;;;6.57;63.62;102683.03;5249575;28;20025;-67
2022/03/01 10:09:28;;;;;;;22.55;15.25;;;;;;;6.67;60.08;102687.16;5250107;28;20063;-67
2022/03/01 10:12:04;;;;;;;21.85;13.27;;;;;;;6.70;63.26;102683.53;5250056;28;20041;-67
2022/03/01 10:14:35;;;;;;;18.55;12.43;;;;;;;6.81;59.46;102686.72;5251970;28;20091;-67
2022/03/01 10:17:14;;;;;;;17.30;11.65;;;;;;;6.81;60.16;102694.69;5252844;28;20437;-67
2022/03/01 10:19:45;;;;;;;17.33;11.40;;;;;;;6.82;56.91;102685.78;5252210;28;20028;-67
2022/03/01 10:22:21;;;;;;;18.58;11.95;;;;;;;6.78;62.09;102684.16;5252063;28;20039;-67
2022/03/01 10:24:52;;;;;;;20.20;12.40;;;;;;;6.94;59.50;102675.72;5249418;28;20029;-67
2022/03/01 10:27:31;;;;;;;18.67;11.90;;;;;;;6.95;60.69;102680.97;5246364;28;20063;-67
2022/03/01 10:30:05;;;;;;;19.00;11.68;;;;;;;7.07;57.49;102679.72;5250598;28;20044;-67
2022/03/01 10:32:37;;;;;;;19.83;11.63;;;;;;;7.20;57.61;102683.69;5254953;28;20024;-66
2022/03/01 10:35:09;;;;;;;19.88;12.43;;;;;;;7.23;57.51;102670.34;5251059;28;20021;-67
2022/03/01 10:37:41;;;;;;;19.48;12.75;;;;;;;7.32;57.02;102671.81;5249900;28;20052;-67
2022/03/01 10:40:19;;;;;;;19.70;11.43;;;;;;;7.41;57.68;102670.63;5246126;28;20123;-68
2022/03/01 10:43:02;;;;;;;18.58;12.77;;;;;;;7.48;57.83;102664.22;5249390;28;20082;-67
2022/03/01 10:45:46;;;;;;;18.73;12.20;;;;;;;7.54;57.86;102671.97;5247913;28;20029;-67
2022/03/01 10:48:34;;;;;;;20.40;12.88;;;;;;;7.58;55.60;102675.38;5252872;28;20056;-67
2022/03/01 10:51:10;;;;;;;20.77;12.13;;;;;;;7.54;58.32;102679.94;5252320;28;20056;-67
2022/03/01 10:53:45;;;;;;;16.70;12.10;;;;;;;7.65;57.17;102671.56;5246571;28;20025;-67
2022/03/01 10:56:16;;;;;;;17.60;12.15;;;;;;;7.68;55.48;102679.44;5256140;28;20112;-67
2022/03/01 10:58:48;;;;;;;20.70;12.80;;;;;;;7.76;56.37;102688.00;5251202;28;20421;-68
2022/03/01 11:01:21;;;;;;;19.70;12.18;;;;;;;7.89;55.70;102684.94;5250591;28;20128;-69
2022/03/01 11:03:52;;;;;;;20.13;12.68;;;;;;;8.05;55.78;102689.66;5250955;28;20520;-70
2022/03/01 11:06:25;;;;;;;19.08;12.15;;;;;;;8.19;57.05;102693.59;5251577;28;20044;-69
2022/03/01 11:08:59;;;;;;;18.55;12.68;;;;;;;8.21;60.00;102689.94;5244193;28;20028;-69
2022/03/01 11:11:31;;;;;;;17.88;12.52;;;;;;;8.43;56.03;102692.69;5248508;28;20112;-69
2022/03/01 11:14:03;;;;;;;17.58;11.73;;;;;;;8.42;52.33;102692.78;5249890;28;20097;-68
2022/03/01 11:17:03;;;;;;;18.83;12.40;;;;;;;8.51;58.85;102689.75;5253992;28;20561;-68
2022/03/01 11:20:04;;;;;;;18.88;12.50;;;;;;;8.48;57.56;102695.19;5251610;28;20489;-68
2022/03/01 11:22:45;;;;;;;20.20;12.25;;;;;;;8.61;58.49;102692.91;5247440;28;20037;-68
2022/03/01 11:25:23;;;;;;;19.15;12.70;;;;;;;8.66;55.83;102690.94;5248635;28;20041;-68
2022/03/01 11:28:02;;;;;;;18.20;12.10;;;;;;;8.69;55.89;102679.34;5250050;28;20378;-68
2022/03/01 11:30:52;;;;;;;19.98;12.73;;;;;;;8.73;56.63;102683.59;5249040;28;20498;-69
2022/03/01 11:33:35;;;;;;;16.88;11.82;;;;;;;8.76;55.00;102689.69;5252983;28;20033;-68
2022/03/01 11:36:07;;;;;;;18.73;12.40;;;;;;;8.71;55.42;102686.31;5252658;28;20111;-69